Time;durP1;ratioP1;P1;durP2;ratioP2;P2;SDS_P1;SDS_P2;PMS_P1;PMS_P2;Temp;Humidity;BMP_temperature;BMP_pressure;BME280_temperature;BME280_humidity;BME280_pressure;Samples;Min_cycle;Max_cycle;Signal;HPM_P1;HPM_P2
2022/06/06 00:01:57;;;;;;;1831.30;999.90;;;13.80;99.90;;;;;;5000610;28;20308;-74
2022/06/06 00:04:24;;;;;;;1999.90;999.90;;;13.80;99.90;;;;;;5008752;28;20288;-75
2022/06/06 00:06:52;;;;;;;1710.70;999.90;;;13.70;99.90;;;;;;5025336;28;20610;-74
2022/06/06 00:09:19;;;;;;;1466.00;999.90;;;13.70;99.90;;;;;;5008244;28;20291;-74
2022/06/06 00:11:45;;;;;;;1522.53;999.90;;;13.70;99.90;;;;;;5008845;28;20633;-74
2022/06/06 00:14:13;;;;;;;1725.20;999.90;;;13.70;99.90;;;;;;5025521;28;20645;-74
2022/06/06 00:16:39;;;;;;;1999.90;999.90;;;13.70;99.90;;;;;;5006507;28;20430;-74
2022/06/06 00:19:05;;;;;;;1572.27;999.90;;;13.70;99.90;;;;;;5008139;28;20292;-74
2022/06/06 00:21:31;;;;;;;1761.33;999.90;;;13.70;99.90;;;;;;5025149;28;20312;-73
2022/06/06 00:23:59;;;;;;;1763.13;999.90;;;13.70;99.90;;;;;;5008728;28;20791;-74
2022/06/06 00:26:28;;;;;;;1999.90;999.90;;;13.70;99.90;;;;;;5008290;28;20284;-74
2022/06/06 00:28:54;;;;;;;1873.97;999.90;;;13.60;99.90;;;;;;5025555;28;20284;-74
2022/06/06 00:36:49;;;;;;;1977.50;999.90;;;13.60;99.90;;;;;;5002023;28;20288;-74
2022/06/06 00:39:17;;;;;;;1999.90;999.90;;;13.60;99.90;;;;;;5008517;28;20720;-74
2022/06/06 00:41:50;;;;;;;1999.90;999.90;;;13.50;99.90;;;;;;5019275;28;20033;-74
2022/06/06 00:44:27;;;;;;;1999.90;999.90;;;13.50;99.90;;;;;;5025394;28;20387;-73
2022/06/06 00:47:04;;;;;;;1999.90;999.90;;;13.50;99.90;;;;;;5025068;28;20268;-74
2022/06/06 00:50:00;;;;;;;1999.90;999.90;;;13.50;99.90;;;;;;5007689;28;20846;-74
2022/06/06 00:52:34;;;;;;;1999.90;999.90;;;13.50;99.90;;;;;;4988477;28;20292;-74
2022/06/06 00:55:03;;;;;;;1999.90;999.90;;;13.40;99.90;;;;;;5024132;28;20633;-74
2022/06/06 00:57:33;;;;;;;1999.90;999.90;;;13.40;99.90;;;;;;4996974;28;20292;-74
2022/06/06 01:00:02;;;;;;;1752.07;999.90;;;13.40;99.90;;;;;;5023338;28;20653;-74
2022/06/06 01:02:29;;;;;;;1755.50;999.90;;;13.40;99.90;;;;;;5023883;28;20383;-74
2022/06/06 01:04:55;;;;;;;1725.73;999.90;;;13.40;99.90;;;;;;5025099;28;20284;-74
2022/06/06 01:07:21;;;;;;;1999.90;999.90;;;13.30;99.90;;;;;;5008212;28;20371;-74
2022/06/06 01:09:48;;;;;;;1763.70;999.90;;;13.30;99.90;;;;;;5006518;28;20371;-74
2022/06/06 01:12:19;;;;;;;1907.83;999.90;;;13.30;99.90;;;;;;5025213;28;20521;-74
2022/06/06 01:14:55;;;;;;;1797.73;999.90;;;13.30;99.90;;;;;;5007754;28;20284;-74
2022/06/06 01:17:49;;;;;;;1999.90;999.90;;;13.30;99.90;;;;;;5023160;28;20876;-74
2022/06/06 01:21:16;;;;;;;1726.97;999.90;;;13.30;99.90;;;;;;5035885;28;20324;-74
2022/06/06 01:23:58;;;;;;;1687.07;999.90;;;13.30;99.90;;;;;;4977381;28;20381;-74
2022/06/06 01:26:54;;;;;;;1999.90;999.90;;;13.20;99.90;;;;;;4989791;28;20042;-74
2022/06/06 01:29:34;;;;;;;1614.10;999.90;;;13.20;99.90;;;;;;5020155;28;20381;-74
2022/06/06 01:32:21;;;;;;;1753.30;999.90;;;13.20;99.90;;;;;;4995191;28;20053;-74
2022/06/06 01:34:51;;;;;;;1784.63;999.90;;;13.20;99.90;;;;;;5033494;28;20319;-74
2022/06/06 01:37:29;;;;;;;1719.33;999.90;;;13.30;99.90;;;;;;5020707;28;20342;-74
2022/06/06 01:39:56;;;;;;;1726.30;999.90;;;13.30;99.90;;;;;;5026981;28;20290;-74
2022/06/06 01:42:34;;;;;;;1788.27;999.90;;;13.30;99.90;;;;;;5008821;28;20642;-74
2022/06/06 01:45:14;;;;;;;1605.67;999.90;;;13.30;99.90;;;;;;5026509;28;20284;-74
2022/06/06 01:47:46;;;;;;;1999.90;999.90;;;13.30;99.90;;;;;;5026217;28;20276;-74
2022/06/06 01:50:12;;;;;;;1999.90;999.90;;;13.30;99.90;;;;;;5043663;28;20342;-74
2022/06/06 01:52:53;;;;;;;1604.00;999.90;;;13.30;99.90;;;;;;5011497;28;20304;-74
2022/06/06 01:55:20;;;;;;;1829.13;999.90;;;13.30;99.90;;;;;;5027804;28;20815;-74
2022/06/06 01:57:48;;;;;;;1364.07;999.90;;;13.30;99.90;;;;;;5037536;28;20292;-74
2022/06/06 02:00:15;;;;;;;1524.07;999.90;;;13.30;99.90;;;;;;5020775;28;20648;-74
2022/06/06 02:02:43;;;;;;;1667.67;999.90;;;13.30;99.90;;;;;;5023849;28;20414;-74
2022/06/06 02:05:13;;;;;;;1316.83;999.90;;;13.30;99.90;;;;;;4995630;28;20280;-74
2022/06/06 02:07:40;;;;;;;1349.37;999.90;;;13.30;99.90;;;;;;5027531;28;20280;-74
2022/06/06 02:10:11;;;;;;;1568.87;999.90;;;13.30;99.90;;;;;;5024321;28;20365;-74
2022/06/06 02:12:38;;;;;;;1551.83;999.90;;;13.30;99.90;;;;;;5027673;28;20291;-74
2022/06/06 02:15:06;;;;;;;1999.90;999.90;;;13.30;99.90;;;;;;5011150;28;20288;-74
2022/06/06 02:17:32;;;;;;;1588.00;999.90;;;13.30;99.90;;;;;;5010577;28;20292;-74
2022/06/06 02:19:57;;;;;;;1313.10;999.90;;;13.30;99.90;;;;;;5026021;28;20345;-74
2022/06/06 02:22:23;;;;;;;1491.87;999.90;;;13.30;99.90;;;;;;4994411;28;20387;-74
2022/06/06 02:24:49;;;;;;;1789.93;999.90;;;13.30;99.90;;;;;;5024305;28;20041;-74
2022/06/06 02:27:15;;;;;;;1639.13;999.90;;;13.30;99.90;;;;;;5010573;28;20068;-74
2022/06/06 02:29:41;;;;;;;1446.97;999.90;;;13.20;99.90;;;;;;5010362;28;20045;-74
2022/06/06 02:32:08;;;;;;;1505.83;999.90;;;13.20;99.90;;;;;;4991190;28;20107;-74
2022/06/06 02:34:34;;;;;;;1554.33;999.90;;;13.30;99.90;;;;;;4994034;28;20284;-74
2022/06/06 02:37:00;;;;;;;1634.93;999.90;;;13.30;99.90;;;;;;5010671;28;20330;-74
2022/06/06 02:39:26;;;;;;;1999.90;999.90;;;13.30;99.90;;;;;;5026575;28;20295;-74
2022/06/06 02:41:52;;;;;;;1838.63;999.90;;;13.30;99.90;;;;;;5027365;28;20304;-74
2022/06/06 02:44:17;;;;;;;1329.17;999.90;;;13.30;99.90;;;;;;5025486;28;20487;-74
2022/06/06 02:46:43;;;;;;;1444.57;999.90;;;13.20;99.90;;;;;;5007685;28;20041;-73
2022/06/06 02:49:09;;;;;;;1622.17;999.90;;;13.20;99.90;;;;;;5002465;28;20040;-73
2022/06/06 02:51:34;;;;;;;1525.23;999.90;;;13.30;99.90;;;;;;4993534;28;20942;-74
2022/06/06 02:54:02;;;;;;;1613.10;999.90;;;13.30;99.90;;;;;;5026438;28;20733;-74
2022/06/06 02:56:28;;;;;;;1730.53;999.90;;;13.30;99.90;;;;;;5006624;28;20058;-74
2022/06/06 02:59:01;;;;;;;1788.70;999.90;;;13.30;99.90;;;;;;5005777;28;20811;-74
2022/06/06 03:01:28;;;;;;;1680.63;999.90;;;13.30;99.90;;;;;;5020089;28;20308;-74
2022/06/06 03:03:53;;;;;;;1710.20;999.90;;;13.30;99.90;;;;;;5007156;28;20272;-74
2022/06/06 03:07:07;;;;;;;1510.57;999.90;;;13.30;99.90;;;;;;5026170;28;20287;-74
2022/06/06 03:09:57;;;;;;;1379.80;999.90;;;13.30;99.90;;;;;;4979679;28;20443;-74
2022/06/06 03:12:23;;;;;;;1411.30;999.90;;;13.30;99.90;;;;;;5026213;28;20358;-74
2022/06/06 03:15:16;;;;;;;1569.43;999.90;;;13.30;99.90;;;;;;5026087;28;20780;-74
2022/06/06 03:21:37;;;;;;;1727.35;999.90;;;13.30;99.90;;;;;;5020197;28;20339;-74
2022/06/06 03:24:34;;;;;;;1433.57;999.90;;;13.30;99.90;;;;;;4995860;28;20141;-75
2022/06/06 03:27:39;;;;;;;1816.13;999.90;;;13.30;99.90;;;;;;5024520;28;20311;-74
2022/06/06 03:30:15;;;;;;;1919.47;999.90;;;13.30;99.90;;;;;;5002768;28;20950;-74
2022/06/06 03:33:26;;;;;;;1726.33;999.90;;;13.30;99.90;;;;;;5017807;28;20350;-73
2022/06/06 03:36:09;;;;;;;1806.43;999.90;;;13.40;99.90;;;;;;5013030;28;20375;-73
2022/06/06 03:38:46;;;;;;;1706.37;999.90;;;13.40;99.90;;;;;;5022217;28;20292;-73
2022/06/06 03:41:30;;;;;;;1724.60;999.90;;;13.40;99.90;;;;;;5021554;28;20304;-73
2022/06/06 03:44:10;;;;;;;1722.37;999.90;;;13.40;99.90;;;;;;5025752;28;20434;-73
2022/06/06 03:46:52;;;;;;;1689.03;999.90;;;13.40;99.90;;;;;;5007677;28;20288;-73
2022/06/06 03:50:08;;;;;;;1785.67;999.90;;;13.40;99.90;;;;;;5024101;28;20276;-73
2022/06/06 03:52:45;;;;;;;1762.10;999.90;;;13.40;99.90;;;;;;5029832;28;20338;-73
2022/06/06 03:55:29;;;;;;;1841.10;999.90;;;13.40;99.90;;;;;;5008329;28;20292;-74
2022/06/06 03:57:56;;;;;;;1806.20;999.90;;;13.40;99.90;;;;;;5019342;28;20648;-73
2022/06/06 04:00:23;;;;;;;1746.27;999.90;;;13.40;99.90;;;;;;5019683;28;20311;-73
2022/06/06 04:02:50;;;;;;;1598.67;999.90;;;13.40;99.90;;;;;;4988068;28;20374;-73
2022/06/06 04:05:18;;;;;;;1639.33;999.90;;;13.40;99.90;;;;;;5007733;28;20280;-73
2022/06/06 04:07:44;;;;;;;1612.63;999.90;;;13.40;99.90;;;;;;5024872;28;20272;-74
2022/06/06 04:10:11;;;;;;;1999.90;999.90;;;13.50;99.90;;;;;;5008976;28;20634;-74
2022/06/06 04:12:43;;;;;;;1717.07;999.90;;;13.40;99.90;;;;;;4990092;28;20041;-74
2022/06/06 04:15:17;;;;;;;1683.13;999.90;;;13.40;99.90;;;;;;5024701;28;20296;-74
2022/06/06 04:18:02;;;;;;;1835.97;999.90;;;13.40;99.90;;;;;;5018335;28;20338;-74
2022/06/06 04:20:58;;;;;;;1916.77;999.90;;;13.30;99.90;;;;;;5036785;28;20042;-74
2022/06/06 04:23:42;;;;;;;;;;;13.30;99.90;;;;;;5016627;28;20276;-74
2022/06/06 04:26:16;;;;;;;1597.33;999.90;;;13.20;99.90;;;;;;5008506;28;20007;-74
2022/06/06 04:28:53;;;;;;;1971.77;999.90;;;13.20;99.90;;;;;;5008083;28;20288;-74
2022/06/06 04:32:00;;;;;;;1999.90;999.90;;;13.10;99.90;;;;;;5024366;28;20379;-74
2022/06/06 04:35:07;;;;;;;1999.90;999.90;;;13.10;99.90;;;;;;5015041;28;20288;-74
2022/06/06 04:37:43;;;;;;;1999.90;999.90;;;13.10;99.90;;;;;;5018065;28;20754;-74
2022/06/06 04:40:45;;;;;;;1868.33;999.90;;;13.10;99.90;;;;;;5022567;28;20549;-74
2022/06/06 04:43:23;;;;;;;1803.53;999.90;;;13.00;99.90;;;;;;5025136;28;20284;-73
2022/06/06 04:46:02;;;;;;;1550.53;999.90;;;13.00;99.90;;;;;;5024862;28;20276;-74
2022/06/06 04:48:29;;;;;;;1565.13;999.90;;;13.00;99.90;;;;;;4997673;28;20288;-74
2022/06/06 04:50:56;;;;;;;1885.23;999.90;;;13.00;99.90;;;;;;5004421;28;20671;-74
2022/06/06 04:53:24;;;;;;;1999.90;999.90;;;13.00;99.90;;;;;;5024787;28;20327;-74
2022/06/06 04:55:50;;;;;;;1999.90;999.90;;;12.90;99.90;;;;;;5022658;28;20792;-74
2022/06/06 04:58:19;;;;;;;1664.73;999.90;;;12.90;99.90;;;;;;5020749;28;20331;-74
2022/06/06 05:00:45;;;;;;;1852.27;999.90;;;12.90;99.90;;;;;;5028211;28;20361;-74
2022/06/06 05:03:13;;;;;;;1999.90;999.90;;;12.90;99.90;;;;;;5028181;28;20379;-74
2022/06/06 05:05:45;;;;;;;1999.90;999.90;;;12.90;99.90;;;;;;5011816;28;20384;-74
2022/06/06 05:08:37;;;;;;;1999.90;999.90;;;12.90;99.90;;;;;;5012661;28;20414;-74
2022/06/06 05:11:17;;;;;;;1994.23;999.90;;;12.80;99.90;;;;;;5010313;28;20626;-74
2022/06/06 05:14:08;;;;;;;1999.90;999.90;;;12.80;99.90;;;;;;5027525;28;20319;-74
2022/06/06 05:16:50;;;;;;;1999.90;999.90;;;12.80;99.90;;;;;;5028591;28;20294;-74
2022/06/06 05:19:25;;;;;;;1999.90;999.90;;;12.70;99.90;;;;;;5023712;28;20315;-74
2022/06/06 05:22:20;;;;;;;1429.90;999.90;;;12.70;99.90;;;;;;5028180;28;20315;-74
2022/06/06 05:24:48;;;;;;;1999.90;999.90;;;12.70;99.90;;;;;;4999150;28;20073;-74
2022/06/06 05:27:29;;;;;;;1951.37;999.90;;;12.70;99.90;;;;;;5028779;28;20521;-74
2022/06/06 05:30:27;;;;;;;1677.70;999.90;;;12.60;99.90;;;;;;5027199;28;20284;-74
2022/06/06 05:33:40;;;;;;;1999.90;999.90;;;12.70;99.90;;;;;;4977575;28;20641;-74
2022/06/06 05:36:24;;;;;;;1999.90;999.90;;;12.70;99.90;;;;;;5002027;28;20281;-74
2022/06/06 05:39:29;;;;;;;1930.80;999.90;;;12.60;99.90;;;;;;5025370;28;20276;-74
2022/06/06 05:42:40;;;;;;;1999.90;999.90;;;12.60;99.90;;;;;;5008862;28;20304;-74
2022/06/06 05:45:05;;;;;;;1999.90;999.90;;;12.50;99.90;;;;;;4990463;28;20379;-74
2022/06/06 05:47:44;;;;;;;1999.90;999.90;;;12.50;99.90;;;;;;5002454;28;21252;-74
2022/06/06 05:50:34;;;;;;;1839.50;999.90;;;12.50;99.90;;;;;;4995422;28;20037;-74
2022/06/06 05:53:18;;;;;;;1999.90;999.90;;;12.50;99.90;;;;;;5025961;28;20295;-75
2022/06/06 05:56:29;;;;;;;1743.33;999.90;;;12.50;99.90;;;;;;5026562;28;20300;-75
2022/06/06 05:59:19;;;;;;;1808.10;999.90;;;12.50;99.90;;;;;;5007561;28;20288;-74
2022/06/06 06:02:14;;;;;;;1675.37;999.90;;;12.50;99.90;;;;;;5024686;28;20296;-74
2022/06/06 06:05:00;;;;;;;1786.22;999.90;;;12.50;99.90;;;;;;5026640;28;20281;-74
2022/06/06 06:07:34;;;;;;;1999.90;999.90;;;12.50;99.90;;;;;;5023924;28;20489;-74
2022/06/06 06:10:17;;;;;;;1999.90;999.90;;;12.60;99.90;;;;;;5025547;28;20780;-74
2022/06/06 06:12:43;;;;;;;1999.90;999.90;;;12.60;99.90;;;;;;5021086;28;20291;-74
2022/06/06 06:15:44;;;;;;;1999.90;999.90;;;12.60;99.90;;;;;;5023644;28;20287;-74
2022/06/06 06:18:46;;;;;;;1714.23;999.90;;;12.60;99.90;;;;;;4988112;28;20042;-74
2022/06/06 06:21:17;;;;;;;1639.47;999.90;;;12.60;99.90;;;;;;5019684;28;20308;-73
2022/06/06 06:23:50;;;;;;;1999.90;999.90;;;12.60;99.70;;;;;;5007265;28;20292;-73
2022/06/06 06:26:16;;;;;;;1690.57;999.90;;;12.60;99.90;;;;;;5019381;28;20285;-73
2022/06/06 06:28:45;;;;;;;1302.60;999.90;;;12.70;99.90;;;;;;5009819;28;20310;-73
2022/06/06 06:31:40;;;;;;;1999.90;999.90;;;12.80;99.90;;;;;;5026745;28;20593;-74
2022/06/06 06:34:16;;;;;;;1999.90;999.90;;;12.90;98.80;;;;;;5001434;28;20864;-73
2022/06/06 06:36:56;;;;;;;1863.17;999.90;;;12.90;97.90;;;;;;5005940;28;20724;-74
2022/06/06 06:39:52;;;;;;;1999.90;999.90;;;12.90;97.80;;;;;;5025324;28;20291;-74
2022/06/06 06:42:26;;;;;;;1999.90;999.90;;;13.00;97.10;;;;;;5010046;28;20311;-74
2022/06/06 06:45:15;;;;;;;1753.60;999.90;;;13.00;94.90;;;;;;5025887;28;20048;-74
2022/06/06 06:47:49;;;;;;;1999.90;999.90;;;13.00;94.70;;;;;;5026043;28;20072;-74
2022/06/06 06:50:25;;;;;;;1748.83;999.90;;;13.10;94.30;;;;;;5008841;28;20296;-74
2022/06/06 06:53:29;;;;;;;1999.90;999.90;;;13.10;94.60;;;;;;5018789;28;20295;-74
2022/06/06 06:56:22;;;;;;;1999.47;999.90;;;13.30;94.80;;;;;;4967632;28;1549953;-74
2022/06/06 06:58:59;;;;;;;1999.90;999.90;;;13.40;95.10;;;;;;5020834;28;20228;-73
2022/06/06 07:01:37;;;;;;;1837.20;999.90;;;13.60;95.00;;;;;;5009419;28;20797;-73
2022/06/06 07:10:43;;;;;;;1999.90;999.90;;;13.60;92.20;;;;;;4992335;28;20288;-74
2022/06/06 07:13:33;;;;;;;1999.90;999.90;;;13.50;92.20;;;;;;5017018;28;20307;-74
2022/06/06 07:16:13;;;;;;;1999.90;999.90;;;13.40;91.70;;;;;;5015163;28;20308;-75
2022/06/06 07:18:39;;;;;;;1999.90;999.90;;;13.30;91.80;;;;;;5023914;28;20696;-74
2022/06/06 07:21:07;;;;;;;1999.90;999.90;;;13.20;90.70;;;;;;5018228;28;20682;-74
2022/06/06 07:23:38;;;;;;;1823.20;999.90;;;13.10;91.30;;;;;;5007939;28;20284;-74
2022/06/06 07:26:06;;;;;;;1999.90;999.90;;;13.10;92.20;;;;;;5006521;28;20276;-75
2022/06/06 07:28:32;;;;;;;1868.87;999.90;;;13.10;92.60;;;;;;5006989;28;20292;-73
2022/06/06 07:31:14;;;;;;;1999.90;999.90;;;13.10;92.50;;;;;;5007944;28;20652;-74
2022/06/06 07:34:02;;;;;;;1999.90;999.90;;;13.10;93.50;;;;;;5019929;28;20033;-74
2022/06/06 07:36:30;;;;;;;1999.90;999.90;;;13.10;93.80;;;;;;5007857;28;20300;-74
2022/06/06 07:39:28;;;;;;;1744.10;999.90;;;13.10;94.30;;;;;;5003429;28;20289;-74
2022/06/06 07:42:10;;;;;;;1999.90;999.90;;;13.20;95.50;;;;;;4992846;28;20308;-74
2022/06/06 07:44:46;;;;;;;1999.90;999.90;;;13.40;96.40;;;;;;5023553;28;20660;-73
2022/06/06 07:47:20;;;;;;;1763.63;999.90;;;13.60;96.20;;;;;;5019984;28;20288;-74
2022/06/06 07:49:57;;;;;;;1901.67;999.90;;;13.80;94.60;;;;;;5025415;28;20311;-73
2022/06/06 07:52:50;;;;;;;1999.90;999.90;;;14.00;93.90;;;;;;5023480;28;20533;-73
2022/06/06 07:55:42;;;;;;;1999.90;999.90;;;14.30;93.10;;;;;;5021629;28;20327;-73
2022/06/06 07:58:35;;;;;;;1999.90;999.90;;;14.40;92.40;;;;;;5012934;28;20302;-74
2022/06/06 08:01:38;;;;;;;1999.90;999.90;;;14.50;90.00;;;;;;5004719;28;20673;-74
2022/06/06 08:04:30;;;;;;;1974.37;999.90;;;14.50;90.00;;;;;;5022208;28;20296;-74
2022/06/06 08:07:05;;;;;;;1999.90;999.90;;;14.40;88.80;;;;;;5003767;28;20610;-74
2022/06/06 08:10:02;;;;;;;1999.90;999.90;;;14.50;89.30;;;;;;5004300;28;20284;-74
2022/06/06 08:13:10;;;;;;;1999.90;999.90;;;14.40;87.80;;;;;;5008132;28;20764;-75
2022/06/06 08:16:18;;;;;;;1999.90;999.90;;;14.60;89.40;;;;;;5023620;28;20291;-73
2022/06/06 08:18:58;;;;;;;1999.90;999.90;;;14.80;87.80;;;;;;4985005;28;20347;-75
2022/06/06 08:21:39;;;;;;;1999.90;999.90;;;14.80;86.60;;;;;;5015999;28;20304;-74
2022/06/06 08:24:08;;;;;;;1999.90;999.90;;;14.60;87.10;;;;;;5018858;28;20301;-76
2022/06/06 08:26:41;;;;;;;1999.90;999.90;;;14.50;88.50;;;;;;5016119;28;20291;-74
2022/06/06 08:29:08;;;;;;;1999.90;999.90;;;14.30;87.80;;;;;;5018392;28;20289;-74
2022/06/06 08:31:34;;;;;;;1999.90;999.90;;;14.20;89.20;;;;;;5021447;28;20661;-74
2022/06/06 08:33:59;;;;;;;1999.90;999.90;;;14.10;89.60;;;;;;5030160;28;20805;-74
2022/06/06 08:36:25;;;;;;;1999.90;999.90;;;14.20;90.70;;;;;;5037319;28;20300;-74
2022/06/06 08:39:02;;;;;;;1999.90;999.90;;;14.10;89.90;;;;;;5003701;28;20056;-74
2022/06/06 08:42:05;;;;;;;1999.90;999.90;;;14.10;90.20;;;;;;5025847;28;20353;-75
2022/06/06 08:45:07;;;;;;;1999.90;999.90;;;14.10;90.70;;;;;;5018530;28;20294;-74
2022/06/06 08:47:55;;;;;;;1999.90;999.90;;;14.10;90.60;;;;;;5000223;28;20295;-74
2022/06/06 08:50:55;;;;;;;1999.90;999.90;;;14.20;92.00;;;;;;5023340;28;20288;-74
2022/06/06 08:53:24;;;;;;;1999.90;999.90;;;14.20;91.60;;;;;;5037444;28;20788;-74
2022/06/06 08:56:08;;;;;;;1999.90;999.90;;;14.20;92.20;;;;;;5005346;28;20304;-74
2022/06/06 08:58:51;;;;;;;1999.90;999.90;;;14.10;92.30;;;;;;5012753;28;20296;-74
2022/06/06 09:01:17;;;;;;;1999.90;999.90;;;14.00;92.50;;;;;;5022016;28;20311;-74
2022/06/06 09:04:21;;;;;;;1999.90;999.90;;;14.10;93.40;;;;;;5018406;28;20284;-74
2022/06/06 09:07:11;;;;;;;1999.90;999.90;;;14.10;93.00;;;;;;5017984;28;20045;-74
2022/06/06 09:09:46;;;;;;;1999.90;999.90;;;14.10;93.40;;;;;;5020400;28;20315;-74
2022/06/06 09:12:31;;;;;;;1999.90;999.90;;;14.20;93.90;;;;;;5022606;28;20292;-74
2022/06/06 09:15:15;;;;;;;1999.90;999.90;;;14.30;92.90;;;;;;5008595;28;20048;-74
2022/06/06 09:17:55;;;;;;;1999.90;999.90;;;14.50;93.20;;;;;;5010535;28;20280;-74
2022/06/06 09:20:36;;;;;;;1999.90;999.90;;;14.60;90.90;;;;;;5001000;28;20280;-74
2022/06/06 09:23:29;;;;;;;1999.90;999.90;;;14.80;88.70;;;;;;5003196;28;20318;-75
2022/06/06 09:26:00;;;;;;;1999.90;999.90;;;15.10;88.40;;;;;;5012609;28;20295;-75
2022/06/06 09:29:08;;;;;;;1999.90;999.90;;;15.30;88.40;;;;;;5034608;28;20272;-75
2022/06/06 09:32:00;;;;;;;1999.90;999.90;;;15.40;85.60;;;;;;5019881;28;20288;-73
2022/06/06 09:34:57;;;;;;;1999.90;999.90;;;15.50;85.80;;;;;;5023051;28;20759;-75
2022/06/06 09:37:52;;;;;;;1999.90;999.90;;;15.80;84.00;;;;;;5003295;28;20655;-74
2022/06/06 09:40:56;;;;;;;1993.07;999.90;;;15.90;83.00;;;;;;5021939;28;20292;-74
2022/06/06 09:44:02;;;;;;;1999.90;999.90;;;16.00;81.80;;;;;;5030085;28;20052;-74
2022/06/06 09:46:43;;;;;;;1999.90;999.90;;;16.20;83.30;;;;;;5028004;28;20280;-75
2022/06/06 09:49:36;;;;;;;1999.90;999.90;;;16.30;81.40;;;;;;5021637;28;20292;-75
2022/06/06 09:52:40;;;;;;;1999.90;999.90;;;16.40;80.90;;;;;;5011445;28;20727;-75
2022/06/06 10:01:26;;;;;;;1999.90;999.90;;;16.30;77.60;;;;;;5043582;28;20304;-75
2022/06/06 10:04:25;;;;;;;1999.90;999.90;;;16.30;74.60;;;;;;5027866;28;20285;-74
2022/06/06 10:07:00;;;;;;;1999.90;999.90;;;16.40;77.00;;;;;;5021845;28;20284;-75
2022/06/06 10:09:44;;;;;;;1999.90;999.90;;;16.70;76.70;;;;;;5026333;28;20292;-75
2022/06/06 10:12:13;;;;;;;1999.90;999.90;;;16.90;76.50;;;;;;5007823;28;20046;-75
2022/06/06 10:15:02;;;;;;;1999.90;999.90;;;16.90;73.40;;;;;;5010796;28;20045;-75
2022/06/06 10:18:18;;;;;;;1999.90;999.90;;;16.70;72.60;;;;;;5008956;28;20567;-74
2022/06/06 10:21:10;;;;;;;1999.90;999.90;;;16.60;72.50;;;;;;4987890;28;20980;-75
2022/06/06 10:24:13;;;;;;;1999.90;999.90;;;16.80;72.30;;;;;;5026835;28;20053;-74
2022/06/06 10:27:01;;;;;;;1999.90;999.90;;;17.10;72.30;;;;;;5024102;28;20350;-75
2022/06/06 10:32:36;;;;;;;1999.90;999.90;;;17.50;71.20;;;;;;5025457;28;20375;-74
2022/06/06 10:35:20;;;;;;;1999.90;999.90;;;17.70;71.60;;;;;;5025625;28;20343;-74
2022/06/06 10:38:38;;;;;;;1999.90;999.90;;;18.00;71.80;;;;;;5005845;28;20315;-74
2022/06/06 10:41:22;;;;;;;1999.90;999.90;;;18.20;69.10;;;;;;4965317;28;20718;-75
2022/06/06 10:44:07;;;;;;;1999.90;999.90;;;18.20;67.60;;;;;;5025532;28;20308;-75
2022/06/06 10:47:03;;;;;;;1999.90;999.90;;;17.80;68.90;;;;;;5027027;28;20664;-74
2022/06/06 10:49:32;;;;;;;1999.90;999.90;;;17.60;68.80;;;;;;5009870;28;20579;-74
2022/06/06 10:52:32;;;;;;;1999.90;999.90;;;17.60;71.40;;;;;;5026545;28;20383;-74
2022/06/06 10:55:21;;;;;;;1999.90;999.90;;;17.40;67.90;;;;;;5026484;28;20677;-74
2022/06/06 10:58:24;;;;;;;1999.90;999.90;;;17.20;68.50;;;;;;5008605;28;20791;-74
2022/06/06 11:01:21;;;;;;;1999.90;999.90;;;17.10;69.90;;;;;;5025535;28;20366;-73
2022/06/06 11:04:20;;;;;;;1999.90;999.90;;;17.10;69.40;;;;;;5024332;28;20284;-74
2022/06/06 11:07:21;;;;;;;1999.90;999.90;;;17.10;70.30;;;;;;5025670;28;20298;-75
2022/06/06 11:10:06;;;;;;;1999.90;999.90;;;17.00;68.50;;;;;;5009429;28;20272;-74
2022/06/06 11:13:11;;;;;;;1999.90;999.90;;;17.00;69.00;;;;;;5026593;28;20864;-75
2022/06/06 11:15:41;;;;;;;1999.90;999.90;;;16.80;70.30;;;;;;5026306;28;20124;-74
2022/06/06 11:18:35;;;;;;;1999.90;999.90;;;16.90;71.30;;;;;;5026087;28;20180;-75
2022/06/06 11:21:34;;;;;;;1999.90;999.90;;;16.80;70.80;;;;;;4993523;28;20293;-74
2022/06/06 11:24:32;;;;;;;1999.90;999.90;;;17.00;71.70;;;;;;5001603;28;20272;-75
2022/06/06 11:27:14;;;;;;;1999.90;999.90;;;17.10;69.60;;;;;;4990038;28;20752;-75
2022/06/06 11:30:07;;;;;;;1999.90;999.90;;;17.10;71.10;;;;;;5026045;28;20283;-74
2022/06/06 11:33:10;;;;;;;1999.90;999.90;;;17.20;71.10;;;;;;5024003;28;20660;-75
2022/06/06 11:35:44;;;;;;;1999.90;999.90;;;17.10;70.20;;;;;;5041427;28;20292;-75
2022/06/06 11:38:25;;;;;;;1999.90;999.90;;;17.10;72.40;;;;;;5025296;28;20367;-74
2022/06/06 11:40:53;;;;;;;1999.90;999.90;;;17.10;71.70;;;;;;5026582;28;20465;-75
2022/06/06 11:43:40;;;;;;;1999.90;999.90;;;16.80;71.20;;;;;;5004860;28;20626;-75
2022/06/06 11:46:49;;;;;;;1999.90;999.90;;;16.60;72.70;;;;;;5026395;28;20290;-74
2022/06/06 11:49:53;;;;;;;1999.90;999.90;;;16.50;73.50;;;;;;5000290;28;20279;-75
2022/06/06 11:52:46;;;;;;;1999.90;999.90;;;16.20;73.00;;;;;;5019940;28;20883;-75
2022/06/06 11:55:18;;;;;;;1999.90;999.90;;;15.70;77.00;;;;;;4990392;28;20359;-74
2022/06/06 11:57:59;;;;;;;1999.90;999.90;;;15.60;78.50;;;;;;5002997;28;20316;-74
2022/06/06 12:01:10;;;;;;;1999.90;999.90;;;15.60;79.30;;;;;;5023739;28;20284;-74
2022/06/06 12:04:10;;;;;;;1999.90;999.90;;;15.70;80.40;;;;;;5023480;28;20303;-74
2022/06/06 12:06:55;;;;;;;1999.90;999.90;;;15.90;79.00;;;;;;4998752;28;20284;-74
2022/06/06 12:09:53;;;;;;;1999.90;999.90;;;15.90;77.60;;;;;;5038191;28;20502;-74
2022/06/06 12:12:57;;;;;;;1999.90;999.90;;;15.90;77.60;;;;;;4988289;28;20071;-74
2022/06/06 12:15:32;;;;;;;1999.90;999.90;;;15.60;79.80;;;;;;4970950;28;20556;-74
2022/06/06 12:18:20;;;;;;;1999.90;999.90;;;15.20;82.00;;;;;;4971117;28;20728;-74
2022/06/06 12:21:01;;;;;;;1999.90;999.90;;;15.20;83.50;;;;;;4990516;28;20494;-74
2022/06/06 12:23:57;;;;;;;1999.90;999.90;;;15.30;84.10;;;;;;5022653;28;20280;-74
2022/06/06 12:26:42;;;;;;;;;;;15.40;82.40;;;;;;5019567;28;20778;-74
2022/06/06 12:29:49;;;;;;;1999.90;999.90;;;15.40;81.50;;;;;;4992979;28;19923;-74
2022/06/06 12:32:21;;;;;;;1999.90;999.90;;;15.40;81.90;;;;;;5003156;28;20280;-74
2022/06/06 12:35:00;;;;;;;1999.90;999.90;;;15.20;83.20;;;;;;5024230;28;20371;-74
2022/06/06 12:37:35;;;;;;;1999.90;999.90;;;15.00;84.30;;;;;;5024365;28;20788;-75
2022/06/06 12:40:00;;;;;;;1999.90;999.90;;;14.40;84.80;;;;;;5024065;28;20377;-76
2022/06/06 12:43:00;;;;;;;1999.90;999.90;;;14.10;86.30;;;;;;5008139;28;20134;-75
2022/06/06 12:45:47;;;;;;;1814.20;999.90;;;13.90;87.40;;;;;;5013844;28;20133;-75
2022/06/06 12:48:36;;;;;;;1999.90;999.90;;;13.90;88.70;;;;;;5013010;28;20292;-75
2022/06/06 12:51:15;;;;;;;1999.90;999.90;;;13.90;89.70;;;;;;5024304;28;20642;-75
2022/06/06 12:54:09;;;;;;;1999.90;999.90;;;14.00;90.80;;;;;;5008335;28;20280;-76
2022/06/06 12:56:43;;;;;;;1814.87;999.90;;;14.10;91.60;;;;;;5031645;28;20296;-76
2022/06/06 12:59:21;;;;;;;1999.90;999.90;;;14.10;91.80;;;;;;5017949;28;20430;-75
2022/06/06 13:01:49;;;;;;;1999.90;999.90;;;14.30;92.50;;;;;;5024155;28;20307;-75
2022/06/06 13:04:28;;;;;;;1999.90;999.90;;;14.30;92.00;;;;;;5008377;28;20280;-76
2022/06/06 13:06:56;;;;;;;1999.90;999.90;;;14.30;90.80;;;;;;5024963;28;20387;-76
2022/06/06 13:09:56;;;;;;;1999.90;999.90;;;14.10;90.00;;;;;;5024066;28;20284;-76
2022/06/06 13:12:58;;;;;;;1999.90;999.90;;;14.00;90.30;;;;;;5025256;28;20361;-76
2022/06/06 13:15:39;;;;;;;1999.90;999.90;;;13.90;91.40;;;;;;4985985;28;20310;-77
2022/06/06 13:18:36;;;;;;;1999.90;999.90;;;13.90;92.00;;;;;;5022560;28;20845;-76
2022/06/06 13:21:39;;;;;;;1999.90;999.90;;;13.90;92.30;;;;;;5011686;28;20295;-76
2022/06/06 13:24:28;;;;;;;1999.90;999.90;;;13.90;93.30;;;;;;5002434;28;20739;-76
2022/06/06 13:27:12;;;;;;;1999.90;999.90;;;13.80;91.90;;;;;;5011271;28;20350;-76
2022/06/06 13:29:37;;;;;;;1999.90;999.90;;;13.80;93.10;;;;;;5011444;28;20359;-76
2022/06/06 13:32:12;;;;;;;1999.90;999.90;;;13.70;92.70;;;;;;4995588;28;20366;-76
2022/06/06 13:35:03;;;;;;;1986.53;999.90;;;13.70;93.00;;;;;;5027747;28;20038;-76
2022/06/06 13:38:01;;;;;;;1999.90;999.90;;;13.70;93.90;;;;;;5027441;28;20327;-76